sensor_id;sensor_type;location;lat;lon;timestamp;temperature;humidity
13892;DHT22;7016;48.172;8.058;2023-12-20T00:00:25;6.80;99.90
13892;DHT22;7016;48.172;8.058;2023-12-20T00:02:51;6.70;99.90
13892;DHT22;7016;48.172;8.058;2023-12-20T00:05:17;6.70;99.90
13892;DHT22;7016;48.172;8.058;2023-12-20T00:07:42;6.70;99.90
13892;DHT22;7016;48.172;8.058;2023-12-20T00:10:09;6.80;99.90
13892;DHT22;7016;48.172;8.058;2023-12-20T00:12:34;6.80;99.90
13892;DHT22;7016;48.172;8.058;2023-12-20T00:15:00;6.80;99.90
13892;DHT22;7016;48.172;8.058;2023-12-20T00:17:25;6.80;99.90
13892;DHT22;7016;48.172;8.058;2023-12-20T00:19:51;6.80;99.90
13892;DHT22;7016;48.172;8.058;2023-12-20T00:22:17;6.80;99.90
13892;DHT22;7016;48.172;8.058;2023-12-20T00:24:42;6.80;99.90
13892;DHT22;7016;48.172;8.058;2023-12-20T00:27:08;6.80;99.90
13892;DHT22;7016;48.172;8.058;2023-12-20T00:29:34;6.80;99.90
13892;DHT22;7016;48.172;8.058;2023-12-20T00:31:59;6.80;99.90
13892;DHT22;7016;48.172;8.058;2023-12-20T00:34:25;6.80;99.90
13892;DHT22;7016;48.172;8.058;2023-12-20T00:36:51;6.80;99.90
13892;DHT22;7016;48.172;8.058;2023-12-20T00:39:16;6.90;99.90
13892;DHT22;7016;48.172;8.058;2023-12-20T00:41:42;6.80;99.90
13892;DHT22;7016;48.172;8.058;2023-12-20T00:44:08;6.90;99.90
13892;DHT22;7016;48.172;8.058;2023-12-20T00:46:33;6.80;99.90
13892;DHT22;7016;48.172;8.058;2023-12-20T00:48:59;6.80;99.90
13892;DHT22;7016;48.172;8.058;2023-12-20T00:51:25;6.80;99.90
13892;DHT22;7016;48.172;8.058;2023-12-20T00:53:50;6.80;99.90
13892;DHT22;7016;48.172;8.058;2023-12-20T00:56:20;6.80;99.90
13892;DHT22;7016;48.172;8.058;2023-12-20T00:58:46;6.70;99.90
13892;DHT22;7016;48.172;8.058;2023-12-20T01:01:11;6.70;99.90
13892;DHT22;7016;48.172;8.058;2023-12-20T01:03:38;6.80;99.90
13892;DHT22;7016;48.172;8.058;2023-12-20T01:06:04;6.70;99.90
13892;DHT22;7016;48.172;8.058;2023-12-20T01:08:30;6.70;99.90
13892;DHT22;7016;48.172;8.058;2023-12-20T01:10:56;6.70;99.90
13892;DHT22;7016;48.172;8.058;2023-12-20T01:13:22;6.70;99.90
13892;DHT22;7016;48.172;8.058;2023-12-20T01:15:47;6.70;99.90
13892;DHT22;7016;48.172;8.058;2023-12-20T01:18:14;6.60;99.90
13892;DHT22;7016;48.172;8.058;2023-12-20T01:20:40;6.70;99.90
13892;DHT22;7016;48.172;8.058;2023-12-20T01:23:05;6.60;99.90
13892;DHT22;7016;48.172;8.058;2023-12-20T01:25:31;6.60;99.90
13892;DHT22;7016;48.172;8.058;2023-12-20T01:27:57;6.60;99.90
13892;DHT22;7016;48.172;8.058;2023-12-20T01:30:22;6.60;99.90
13892;DHT22;7016;48.172;8.058;2023-12-20T01:32:48;6.60;99.90
13892;DHT22;7016;48.172;8.058;2023-12-20T01:35:14;6.60;99.90
13892;DHT22;7016;48.172;8.058;2023-12-20T01:37:40;6.70;99.90
13892;DHT22;7016;48.172;8.058;2023-12-20T01:40:06;6.70;99.90
13892;DHT22;7016;48.172;8.058;2023-12-20T01:42:31;6.70;99.90
13892;DHT22;7016;48.172;8.058;2023-12-20T01:44:57;6.70;99.90
13892;DHT22;7016;48.172;8.058;2023-12-20T01:47:23;6.60;99.90
13892;DHT22;7016;48.172;8.058;2023-12-20T01:49:49;6.60;99.90
13892;DHT22;7016;48.172;8.058;2023-12-20T01:52:15;6.60;99.90
13892;DHT22;7016;48.172;8.058;2023-12-20T01:54:42;6.60;99.90
13892;DHT22;7016;48.172;8.058;2023-12-20T01:57:08;6.50;99.90
13892;DHT22;7016;48.172;8.058;2023-12-20T01:59:34;6.50;99.90
13892;DHT22;7016;48.172;8.058;2023-12-20T02:02:00;6.60;99.90
13892;DHT22;7016;48.172;8.058;2023-12-20T02:04:28;6.60;99.90
13892;DHT22;7016;48.172;8.058;2023-12-20T02:06:56;6.70;99.90
13892;DHT22;7016;48.172;8.058;2023-12-20T02:09:22;6.70;99.90
13892;DHT22;7016;48.172;8.058;2023-12-20T02:11:49;6.70;99.90
13892;DHT22;7016;48.172;8.058;2023-12-20T02:14:14;6.60;99.90
13892;DHT22;7016;48.172;8.058;2023-12-20T02:16:40;6.60;99.90
13892;DHT22;7016;48.172;8.058;2023-12-20T02:19:13;6.50;99.90
13892;DHT22;7016;48.172;8.058;2023-12-20T02:21:39;6.60;99.90
13892;DHT22;7016;48.172;8.058;2023-12-20T02:24:04;6.60;99.90
13892;DHT22;7016;48.172;8.058;2023-12-20T02:26:32;6.50;99.90
13892;DHT22;7016;48.172;8.058;2023-12-20T02:28:58;6.50;99.90
13892;DHT22;7016;48.172;8.058;2023-12-20T02:31:24;6.60;99.90
13892;DHT22;7016;48.172;8.058;2023-12-20T02:33:50;6.50;99.90
13892;DHT22;7016;48.172;8.058;2023-12-20T02:36:15;6.50;99.90
13892;DHT22;7016;48.172;8.058;2023-12-20T02:38:41;6.50;99.90
13892;DHT22;7016;48.172;8.058;2023-12-20T02:41:07;6.60;99.90
13892;DHT22;7016;48.172;8.058;2023-12-20T02:43:32;6.60;99.90
13892;DHT22;7016;48.172;8.058;2023-12-20T02:45:58;6.60;99.90
13892;DHT22;7016;48.172;8.058;2023-12-20T02:48:24;6.60;99.90
13892;DHT22;7016;48.172;8.058;2023-12-20T02:50:50;6.60;99.90
13892;DHT22;7016;48.172;8.058;2023-12-20T02:53:15;6.60;99.90
13892;DHT22;7016;48.172;8.058;2023-12-20T02:55:41;6.70;99.90
13892;DHT22;7016;48.172;8.058;2023-12-20T02:58:07;6.70;99.90
13892;DHT22;7016;48.172;8.058;2023-12-20T03:00:33;6.70;99.90
13892;DHT22;7016;48.172;8.058;2023-12-20T03:02:59;6.70;99.90
13892;DHT22;7016;48.172;8.058;2023-12-20T03:05:25;6.70;99.90
13892;DHT22;7016;48.172;8.058;2023-12-20T03:07:51;6.80;99.90
13892;DHT22;7016;48.172;8.058;2023-12-20T03:10:18;6.70;99.90
13892;DHT22;7016;48.172;8.058;2023-12-20T03:12:44;6.80;99.90
13892;DHT22;7016;48.172;8.058;2023-12-20T03:15:10;6.70;99.90
13892;DHT22;7016;48.172;8.058;2023-12-20T03:17:36;6.70;99.90
13892;DHT22;7016;48.172;8.058;2023-12-20T03:20:02;6.70;99.90
13892;DHT22;7016;48.172;8.058;2023-12-20T03:22:27;6.80;99.90
13892;DHT22;7016;48.172;8.058;2023-12-20T03:24:53;6.90;99.90
13892;DHT22;7016;48.172;8.058;2023-12-20T03:27:19;6.80;99.90
13892;DHT22;7016;48.172;8.058;2023-12-20T03:29:44;6.80;99.90
13892;DHT22;7016;48.172;8.058;2023-12-20T03:32:10;6.80;99.90
13892;DHT22;7016;48.172;8.058;2023-12-20T03:34:36;6.80;99.90
13892;DHT22;7016;48.172;8.058;2023-12-20T03:37:01;6.70;99.90
13892;DHT22;7016;48.172;8.058;2023-12-20T03:39:27;6.70;99.90
13892;DHT22;7016;48.172;8.058;2023-12-20T03:41:52;6.70;99.90
13892;DHT22;7016;48.172;8.058;2023-12-20T03:44:18;6.70;99.90
13892;DHT22;7016;48.172;8.058;2023-12-20T03:46:44;6.60;99.90
13892;DHT22;7016;48.172;8.058;2023-12-20T03:49:11;6.60;99.90
13892;DHT22;7016;48.172;8.058;2023-12-20T03:51:36;6.70;99.90
13892;DHT22;7016;48.172;8.058;2023-12-20T03:54:02;6.70;99.90
13892;DHT22;7016;48.172;8.058;2023-12-20T03:56:28;6.70;99.90
13892;DHT22;7016;48.172;8.058;2023-12-20T03:58:54;6.70;99.90
13892;DHT22;7016;48.172;8.058;2023-12-20T04:01:19;6.70;99.90
13892;DHT22;7016;48.172;8.058;2023-12-20T04:03:45;6.70;99.90
13892;DHT22;7016;48.172;8.058;2023-12-20T04:06:17;6.60;99.90
13892;DHT22;7016;48.172;8.058;2023-12-20T04:08:42;6.60;99.90
13892;DHT22;7016;48.172;8.058;2023-12-20T04:11:08;6.60;99.90
13892;DHT22;7016;48.172;8.058;2023-12-20T04:13:34;6.70;99.90
13892;DHT22;7016;48.172;8.058;2023-12-20T04:15:59;6.70;99.90
13892;DHT22;7016;48.172;8.058;2023-12-20T04:18:25;6.70;99.90
13892;DHT22;7016;48.172;8.058;2023-12-20T04:20:50;6.80;99.90
13892;DHT22;7016;48.172;8.058;2023-12-20T04:23:17;6.70;99.90
13892;DHT22;7016;48.172;8.058;2023-12-20T04:25:42;6.70;99.90
13892;DHT22;7016;48.172;8.058;2023-12-20T04:28:08;6.60;99.90
13892;DHT22;7016;48.172;8.058;2023-12-20T04:30:34;6.50;99.90
13892;DHT22;7016;48.172;8.058;2023-12-20T04:33:00;6.50;99.90
13892;DHT22;7016;48.172;8.058;2023-12-20T04:35:26;6.50;99.90
13892;DHT22;7016;48.172;8.058;2023-12-20T04:37:53;6.50;99.90
13892;DHT22;7016;48.172;8.058;2023-12-20T04:40:18;6.50;99.90
13892;DHT22;7016;48.172;8.058;2023-12-20T04:42:44;6.50;99.90
13892;DHT22;7016;48.172;8.058;2023-12-20T04:45:10;6.60;99.90
13892;DHT22;7016;48.172;8.058;2023-12-20T04:47:38;6.50;99.90
13892;DHT22;7016;48.172;8.058;2023-12-20T04:50:04;6.60;99.90
13892;DHT22;7016;48.172;8.058;2023-12-20T04:52:30;6.60;99.90
13892;DHT22;7016;48.172;8.058;2023-12-20T04:54:56;6.60;99.90
13892;DHT22;7016;48.172;8.058;2023-12-20T04:57:22;6.70;99.90
13892;DHT22;7016;48.172;8.058;2023-12-20T04:59:48;6.70;99.90
13892;DHT22;7016;48.172;8.058;2023-12-20T05:02:13;6.70;99.90
13892;DHT22;7016;48.172;8.058;2023-12-20T05:04:39;6.70;99.90
13892;DHT22;7016;48.172;8.058;2023-12-20T05:07:05;6.70;99.90
13892;DHT22;7016;48.172;8.058;2023-12-20T05:09:30;6.70;99.90
13892;DHT22;7016;48.172;8.058;2023-12-20T05:11:56;6.70;99.90
13892;DHT22;7016;48.172;8.058;2023-12-20T05:14:22;6.70;99.90
13892;DHT22;7016;48.172;8.058;2023-12-20T05:16:48;6.80;99.90
13892;DHT22;7016;48.172;8.058;2023-12-20T05:19:13;6.70;99.90
13892;DHT22;7016;48.172;8.058;2023-12-20T05:21:39;6.70;99.90
13892;DHT22;7016;48.172;8.058;2023-12-20T05:24:05;6.70;99.90
13892;DHT22;7016;48.172;8.058;2023-12-20T05:26:31;6.70;99.90
13892;DHT22;7016;48.172;8.058;2023-12-20T05:28:56;6.70;99.90
13892;DHT22;7016;48.172;8.058;2023-12-20T05:31:22;6.70;99.90
13892;DHT22;7016;48.172;8.058;2023-12-20T05:33:48;6.70;99.90
13892;DHT22;7016;48.172;8.058;2023-12-20T05:36:13;6.60;99.90
13892;DHT22;7016;48.172;8.058;2023-12-20T05:38:40;6.60;99.90
13892;DHT22;7016;48.172;8.058;2023-12-20T05:41:06;6.70;99.90
13892;DHT22;7016;48.172;8.058;2023-12-20T05:43:31;6.80;99.90
13892;DHT22;7016;48.172;8.058;2023-12-20T05:48:24;6.80;99.90
13892;DHT22;7016;48.172;8.058;2023-12-20T05:50:49;6.70;99.90
13892;DHT22;7016;48.172;8.058;2023-12-20T05:53:15;6.70;99.90
13892;DHT22;7016;48.172;8.058;2023-12-20T05:55:41;6.70;99.90
13892;DHT22;7016;48.172;8.058;2023-12-20T05:58:06;6.70;99.90
13892;DHT22;7016;48.172;8.058;2023-12-20T06:00:32;6.80;99.90
13892;DHT22;7016;48.172;8.058;2023-12-20T06:02:58;6.70;99.90
13892;DHT22;7016;48.172;8.058;2023-12-20T06:05:24;6.80;99.90
13892;DHT22;7016;48.172;8.058;2023-12-20T06:07:49;6.80;99.90
13892;DHT22;7016;48.172;8.058;2023-12-20T06:10:16;6.80;99.90
13892;DHT22;7016;48.172;8.058;2023-12-20T06:12:42;6.70;99.90
13892;DHT22;7016;48.172;8.058;2023-12-20T06:15:08;6.70;99.90
13892;DHT22;7016;48.172;8.058;2023-12-20T06:17:34;6.80;99.90
13892;DHT22;7016;48.172;8.058;2023-12-20T06:20:00;6.80;99.90
13892;DHT22;7016;48.172;8.058;2023-12-20T06:22:26;6.80;99.90
13892;DHT22;7016;48.172;8.058;2023-12-20T06:24:52;6.80;99.90
13892;DHT22;7016;48.172;8.058;2023-12-20T06:27:17;6.80;99.90
13892;DHT22;7016;48.172;8.058;2023-12-20T06:29:43;6.80;99.90
13892;DHT22;7016;48.172;8.058;2023-12-20T06:32:10;6.80;99.90
13892;DHT22;7016;48.172;8.058;2023-12-20T06:34:36;6.80;99.90
13892;DHT22;7016;48.172;8.058;2023-12-20T06:37:01;6.80;99.90
13892;DHT22;7016;48.172;8.058;2023-12-20T06:39:27;6.80;99.90
13892;DHT22;7016;48.172;8.058;2023-12-20T06:41:53;6.80;99.90
13892;DHT22;7016;48.172;8.058;2023-12-20T06:44:19;6.90;99.90
13892;DHT22;7016;48.172;8.058;2023-12-20T06:46:44;6.90;99.90
13892;DHT22;7016;48.172;8.058;2023-12-20T06:49:10;6.90;99.90
13892;DHT22;7016;48.172;8.058;2023-12-20T06:51:36;6.30;99.90
13892;DHT22;7016;48.172;8.058;2023-12-20T06:54:01;6.90;99.90
13892;DHT22;7016;48.172;8.058;2023-12-20T06:56:28;6.90;99.90
13892;DHT22;7016;48.172;8.058;2023-12-20T06:58:53;6.90;99.90
13892;DHT22;7016;48.172;8.058;2023-12-20T07:01:19;6.90;99.90
13892;DHT22;7016;48.172;8.058;2023-12-20T07:03:45;6.90;99.90
13892;DHT22;7016;48.172;8.058;2023-12-20T07:06:10;6.90;99.90
13892;DHT22;7016;48.172;8.058;2023-12-20T07:08:36;6.90;99.90
13892;DHT22;7016;48.172;8.058;2023-12-20T07:11:02;6.90;99.90
13892;DHT22;7016;48.172;8.058;2023-12-20T07:13:28;6.90;99.90
13892;DHT22;7016;48.172;8.058;2023-12-20T07:15:53;7.00;99.90
13892;DHT22;7016;48.172;8.058;2023-12-20T07:18:19;6.90;99.90
13892;DHT22;7016;48.172;8.058;2023-12-20T07:20:45;6.90;99.90
13892;DHT22;7016;48.172;8.058;2023-12-20T07:23:10;7.00;99.90
13892;DHT22;7016;48.172;8.058;2023-12-20T07:25:36;7.00;99.90
13892;DHT22;7016;48.172;8.058;2023-12-20T07:28:02;6.90;99.90
13892;DHT22;7016;48.172;8.058;2023-12-20T07:30:28;7.00;99.90
13892;DHT22;7016;48.172;8.058;2023-12-20T07:32:53;7.00;99.90
13892;DHT22;7016;48.172;8.058;2023-12-20T07:35:19;7.00;99.90
13892;DHT22;7016;48.172;8.058;2023-12-20T07:37:45;7.10;99.90
13892;DHT22;7016;48.172;8.058;2023-12-20T07:40:11;7.00;99.90
13892;DHT22;7016;48.172;8.058;2023-12-20T07:42:36;7.00;99.90
13892;DHT22;7016;48.172;8.058;2023-12-20T07:45:03;7.00;99.90
13892;DHT22;7016;48.172;8.058;2023-12-20T07:47:28;7.10;99.90
13892;DHT22;7016;48.172;8.058;2023-12-20T07:49:54;7.00;99.90
13892;DHT22;7016;48.172;8.058;2023-12-20T07:52:20;7.00;99.90
13892;DHT22;7016;48.172;8.058;2023-12-20T07:54:48;7.00;99.90
13892;DHT22;7016;48.172;8.058;2023-12-20T07:57:13;6.90;99.90
13892;DHT22;7016;48.172;8.058;2023-12-20T07:59:39;6.90;99.90
13892;DHT22;7016;48.172;8.058;2023-12-20T08:02:05;6.90;99.90
13892;DHT22;7016;48.172;8.058;2023-12-20T08:04:34;7.00;99.90
13892;DHT22;7016;48.172;8.058;2023-12-20T08:06:59;6.80;99.90
13892;DHT22;7016;48.172;8.058;2023-12-20T08:09:25;6.80;99.90
13892;DHT22;7016;48.172;8.058;2023-12-20T08:11:51;6.90;99.90
13892;DHT22;7016;48.172;8.058;2023-12-20T08:14:17;6.90;99.90
13892;DHT22;7016;48.172;8.058;2023-12-20T08:16:42;7.00;99.90
13892;DHT22;7016;48.172;8.058;2023-12-20T08:19:08;7.10;99.90
13892;DHT22;7016;48.172;8.058;2023-12-20T08:21:34;7.10;99.90
13892;DHT22;7016;48.172;8.058;2023-12-20T08:24:00;7.10;99.90
13892;DHT22;7016;48.172;8.058;2023-12-20T08:26:28;7.10;99.90
13892;DHT22;7016;48.172;8.058;2023-12-20T08:28:54;7.20;99.90
13892;DHT22;7016;48.172;8.058;2023-12-20T08:31:20;7.10;99.90
13892;DHT22;7016;48.172;8.058;2023-12-20T08:33:48;7.20;99.90
13892;DHT22;7016;48.172;8.058;2023-12-20T08:36:14;7.00;99.90
13892;DHT22;7016;48.172;8.058;2023-12-20T08:38:40;7.00;99.90
13892;DHT22;7016;48.172;8.058;2023-12-20T08:41:06;7.00;99.90
13892;DHT22;7016;48.172;8.058;2023-12-20T08:43:34;7.00;99.90
13892;DHT22;7016;48.172;8.058;2023-12-20T08:46:00;7.00;99.90
13892;DHT22;7016;48.172;8.058;2023-12-20T08:48:26;7.00;99.90
13892;DHT22;7016;48.172;8.058;2023-12-20T08:50:51;7.00;99.90
13892;DHT22;7016;48.172;8.058;2023-12-20T08:53:18;7.10;99.90
13892;DHT22;7016;48.172;8.058;2023-12-20T08:55:44;7.10;99.90
13892;DHT22;7016;48.172;8.058;2023-12-20T08:58:10;7.10;99.90
13892;DHT22;7016;48.172;8.058;2023-12-20T09:00:36;7.20;99.90
13892;DHT22;7016;48.172;8.058;2023-12-20T09:03:02;7.20;99.90
13892;DHT22;7016;48.172;8.058;2023-12-20T09:05:28;7.20;99.90
13892;DHT22;7016;48.172;8.058;2023-12-20T09:07:54;7.20;99.90
13892;DHT22;7016;48.172;8.058;2023-12-20T09:10:20;7.20;99.90
13892;DHT22;7016;48.172;8.058;2023-12-20T09:12:51;7.20;99.90
13892;DHT22;7016;48.172;8.058;2023-12-20T09:15:17;7.20;99.90
13892;DHT22;7016;48.172;8.058;2023-12-20T09:17:43;7.20;99.90
13892;DHT22;7016;48.172;8.058;2023-12-20T09:20:09;7.20;99.90
13892;DHT22;7016;48.172;8.058;2023-12-20T09:22:35;7.30;99.90
13892;DHT22;7016;48.172;8.058;2023-12-20T09:25:01;7.30;99.90
13892;DHT22;7016;48.172;8.058;2023-12-20T09:27:27;7.30;99.90
13892;DHT22;7016;48.172;8.058;2023-12-20T09:29:53;7.20;99.90
13892;DHT22;7016;48.172;8.058;2023-12-20T09:32:19;7.20;99.90
13892;DHT22;7016;48.172;8.058;2023-12-20T09:34:47;7.30;99.90
13892;DHT22;7016;48.172;8.058;2023-12-20T09:37:13;7.20;99.90
13892;DHT22;7016;48.172;8.058;2023-12-20T09:39:39;7.20;99.90
13892;DHT22;7016;48.172;8.058;2023-12-20T09:42:06;7.10;99.90
13892;DHT22;7016;48.172;8.058;2023-12-20T09:44:32;7.10;99.90
13892;DHT22;7016;48.172;8.058;2023-12-20T09:47:02;7.20;99.90
13892;DHT22;7016;48.172;8.058;2023-12-20T09:49:29;7.20;99.90
13892;DHT22;7016;48.172;8.058;2023-12-20T09:51:56;7.10;99.90
13892;DHT22;7016;48.172;8.058;2023-12-20T09:54:23;7.00;99.90
13892;DHT22;7016;48.172;8.058;2023-12-20T09:56:49;6.90;99.90
13892;DHT22;7016;48.172;8.058;2023-12-20T09:59:15;6.90;99.90
13892;DHT22;7016;48.172;8.058;2023-12-20T10:01:42;6.80;99.90
13892;DHT22;7016;48.172;8.058;2023-12-20T10:04:09;6.90;99.90
13892;DHT22;7016;48.172;8.058;2023-12-20T10:06:44;6.80;99.90
13892;DHT22;7016;48.172;8.058;2023-12-20T10:09:11;6.80;99.90
13892;DHT22;7016;48.172;8.058;2023-12-20T10:11:38;6.80;99.90
13892;DHT22;7016;48.172;8.058;2023-12-20T10:14:05;6.70;99.90
13892;DHT22;7016;48.172;8.058;2023-12-20T10:16:31;6.70;99.90
13892;DHT22;7016;48.172;8.058;2023-12-20T10:18:58;6.70;99.90
13892;DHT22;7016;48.172;8.058;2023-12-20T10:21:24;6.70;99.90
13892;DHT22;7016;48.172;8.058;2023-12-20T10:23:53;6.80;99.90
13892;DHT22;7016;48.172;8.058;2023-12-20T10:26:23;6.60;99.90
13892;DHT22;7016;48.172;8.058;2023-12-20T10:28:56;6.60;99.90
13892;DHT22;7016;48.172;8.058;2023-12-20T10:31:30;6.60;99.90
13892;DHT22;7016;48.172;8.058;2023-12-20T10:34:00;6.70;99.90
13892;DHT22;7016;48.172;8.058;2023-12-20T10:36:27;6.70;99.90
13892;DHT22;7016;48.172;8.058;2023-12-20T10:38:54;6.60;99.90
13892;DHT22;7016;48.172;8.058;2023-12-20T10:41:26;6.70;99.90
13892;DHT22;7016;48.172;8.058;2023-12-20T10:43:56;6.70;99.90
13892;DHT22;7016;48.172;8.058;2023-12-20T10:46:21;6.50;99.90
13892;DHT22;7016;48.172;8.058;2023-12-20T10:48:48;6.50;99.90
13892;DHT22;7016;48.172;8.058;2023-12-20T10:51:18;6.40;99.90
13892;DHT22;7016;48.172;8.058;2023-12-20T10:53:45;6.40;99.90
13892;DHT22;7016;48.172;8.058;2023-12-20T10:56:16;6.20;99.90
13892;DHT22;7016;48.172;8.058;2023-12-20T10:58:42;6.20;99.90
13892;DHT22;7016;48.172;8.058;2023-12-20T11:01:09;6.20;99.90
13892;DHT22;7016;48.172;8.058;2023-12-20T11:03:36;6.30;99.90
13892;DHT22;7016;48.172;8.058;2023-12-20T11:06:10;6.20;99.90
13892;DHT22;7016;48.172;8.058;2023-12-20T11:09:14;6.20;99.90
13892;DHT22;7016;48.172;8.058;2023-12-20T11:12:01;6.30;99.90
13892;DHT22;7016;48.172;8.058;2023-12-20T11:17:12;6.40;99.90
13892;DHT22;7016;48.172;8.058;2023-12-20T11:22:35;6.50;99.90
13892;DHT22;7016;48.172;8.058;2023-12-20T11:25:09;6.60;99.90
13892;DHT22;7016;48.172;8.058;2023-12-20T11:27:35;6.60;99.90
13892;DHT22;7016;48.172;8.058;2023-12-20T11:30:03;6.60;99.90
13892;DHT22;7016;48.172;8.058;2023-12-20T11:32:34;6.50;99.90
13892;DHT22;7016;48.172;8.058;2023-12-20T11:37:38;6.20;99.90
13892;DHT22;7016;48.172;8.058;2023-12-20T11:40:11;6.20;99.90
13892;DHT22;7016;48.172;8.058;2023-12-20T11:42:39;6.30;99.90
13892;DHT22;7016;48.172;8.058;2023-12-20T11:45:07;6.40;99.90
13892;DHT22;7016;48.172;8.058;2023-12-20T11:47:33;6.50;99.90
13892;DHT22;7016;48.172;8.058;2023-12-20T11:50:00;6.60;99.90
13892;DHT22;7016;48.172;8.058;2023-12-20T11:52:29;6.70;99.90
13892;DHT22;7016;48.172;8.058;2023-12-20T11:54:55;6.70;99.90
13892;DHT22;7016;48.172;8.058;2023-12-20T11:57:20;6.50;99.90
13892;DHT22;7016;48.172;8.058;2023-12-20T11:59:46;6.40;99.90
13892;DHT22;7016;48.172;8.058;2023-12-20T12:02:12;6.40;99.90
13892;DHT22;7016;48.172;8.058;2023-12-20T12:04:38;6.30;99.90
13892;DHT22;7016;48.172;8.058;2023-12-20T12:07:04;6.30;99.90
13892;DHT22;7016;48.172;8.058;2023-12-20T12:09:29;6.40;99.90
13892;DHT22;7016;48.172;8.058;2023-12-20T12:11:55;6.40;99.90
13892;DHT22;7016;48.172;8.058;2023-12-20T12:14:21;6.50;99.90
13892;DHT22;7016;48.172;8.058;2023-12-20T12:16:46;6.70;99.90
13892;DHT22;7016;48.172;8.058;2023-12-20T12:19:25;6.70;99.90
13892;DHT22;7016;48.172;8.058;2023-12-20T12:22:04;6.80;99.90
13892;DHT22;7016;48.172;8.058;2023-12-20T12:24:34;6.90;99.90
13892;DHT22;7016;48.172;8.058;2023-12-20T12:27:00;6.90;99.90
13892;DHT22;7016;48.172;8.058;2023-12-20T12:29:26;6.90;99.90
13892;DHT22;7016;48.172;8.058;2023-12-20T12:31:51;6.90;99.90
13892;DHT22;7016;48.172;8.058;2023-12-20T12:34:17;6.90;99.90
13892;DHT22;7016;48.172;8.058;2023-12-20T12:36:43;6.80;99.90
13892;DHT22;7016;48.172;8.058;2023-12-20T12:39:12;6.70;99.90
13892;DHT22;7016;48.172;8.058;2023-12-20T12:41:40;6.70;99.90
13892;DHT22;7016;48.172;8.058;2023-12-20T12:44:06;6.70;99.90
13892;DHT22;7016;48.172;8.058;2023-12-20T12:46:31;6.80;99.90
13892;DHT22;7016;48.172;8.058;2023-12-20T12:48:58;6.80;99.90
13892;DHT22;7016;48.172;8.058;2023-12-20T12:51:23;6.90;99.90
13892;DHT22;7016;48.172;8.058;2023-12-20T12:53:49;6.90;99.90
13892;DHT22;7016;48.172;8.058;2023-12-20T12:56:15;7.00;99.90
13892;DHT22;7016;48.172;8.058;2023-12-20T12:58:41;6.90;99.90
13892;DHT22;7016;48.172;8.058;2023-12-20T13:01:07;6.80;99.90
13892;DHT22;7016;48.172;8.058;2023-12-20T13:03:32;6.90;99.90
13892;DHT22;7016;48.172;8.058;2023-12-20T13:05:59;6.80;99.90
13892;DHT22;7016;48.172;8.058;2023-12-20T13:08:25;6.70;99.90
13892;DHT22;7016;48.172;8.058;2023-12-20T13:10:51;6.80;99.90
13892;DHT22;7016;48.172;8.058;2023-12-20T13:13:17;6.90;99.90
13892;DHT22;7016;48.172;8.058;2023-12-20T13:15:42;6.90;99.90
13892;DHT22;7016;48.172;8.058;2023-12-20T13:18:13;6.80;99.90
13892;DHT22;7016;48.172;8.058;2023-12-20T13:20:39;6.70;99.90
13892;DHT22;7016;48.172;8.058;2023-12-20T13:23:05;6.70;99.90
13892;DHT22;7016;48.172;8.058;2023-12-20T13:25:31;6.80;99.90
13892;DHT22;7016;48.172;8.058;2023-12-20T13:27:58;6.80;99.90
13892;DHT22;7016;48.172;8.058;2023-12-20T13:30:25;6.80;99.90
13892;DHT22;7016;48.172;8.058;2023-12-20T13:32:50;6.90;99.90
13892;DHT22;7016;48.172;8.058;2023-12-20T13:35:16;6.90;99.90
13892;DHT22;7016;48.172;8.058;2023-12-20T13:37:41;6.90;99.90
13892;DHT22;7016;48.172;8.058;2023-12-20T13:40:08;6.80;99.90
13892;DHT22;7016;48.172;8.058;2023-12-20T13:42:34;6.70;99.90
13892;DHT22;7016;48.172;8.058;2023-12-20T13:45:00;6.80;99.90
13892;DHT22;7016;48.172;8.058;2023-12-20T13:47:25;6.90;99.90
13892;DHT22;7016;48.172;8.058;2023-12-20T13:49:51;6.80;99.90
13892;DHT22;7016;48.172;8.058;2023-12-20T13:52:16;6.70;99.90
13892;DHT22;7016;48.172;8.058;2023-12-20T13:54:42;6.70;99.90
13892;DHT22;7016;48.172;8.058;2023-12-20T13:57:08;6.70;99.90
13892;DHT22;7016;48.172;8.058;2023-12-20T13:59:34;6.70;99.90
13892;DHT22;7016;48.172;8.058;2023-12-20T14:02:00;6.80;99.90
13892;DHT22;7016;48.172;8.058;2023-12-20T14:04:26;6.60;99.90
13892;DHT22;7016;48.172;8.058;2023-12-20T14:06:52;6.60;99.90
13892;DHT22;7016;48.172;8.058;2023-12-20T14:09:17;6.70;99.90
13892;DHT22;7016;48.172;8.058;2023-12-20T14:11:43;6.70;99.90
13892;DHT22;7016;48.172;8.058;2023-12-20T14:14:09;6.70;99.90
13892;DHT22;7016;48.172;8.058;2023-12-20T14:16:35;6.70;99.90
13892;DHT22;7016;48.172;8.058;2023-12-20T14:19:01;6.80;99.90
13892;DHT22;7016;48.172;8.058;2023-12-20T14:21:28;6.80;99.90
13892;DHT22;7016;48.172;8.058;2023-12-20T14:23:54;6.70;99.90
13892;DHT22;7016;48.172;8.058;2023-12-20T14:26:20;6.70;99.90
13892;DHT22;7016;48.172;8.058;2023-12-20T14:28:45;6.60;99.90
13892;DHT22;7016;48.172;8.058;2023-12-20T14:31:11;6.60;99.90
13892;DHT22;7016;48.172;8.058;2023-12-20T14:33:37;6.60;99.90
13892;DHT22;7016;48.172;8.058;2023-12-20T14:36:05;6.60;99.90
13892;DHT22;7016;48.172;8.058;2023-12-20T14:38:31;6.60;99.90
13892;DHT22;7016;48.172;8.058;2023-12-20T14:40:57;6.70;99.90
13892;DHT22;7016;48.172;8.058;2023-12-20T14:43:23;6.70;99.90
13892;DHT22;7016;48.172;8.058;2023-12-20T14:45:49;6.70;99.90
13892;DHT22;7016;48.172;8.058;2023-12-20T14:48:16;6.70;99.90
13892;DHT22;7016;48.172;8.058;2023-12-20T14:50:47;6.70;99.90
13892;DHT22;7016;48.172;8.058;2023-12-20T14:53:18;6.60;99.90
13892;DHT22;7016;48.172;8.058;2023-12-20T14:55:46;6.50;99.90
13892;DHT22;7016;48.172;8.058;2023-12-20T14:58:12;6.50;99.90
13892;DHT22;7016;48.172;8.058;2023-12-20T15:00:38;6.50;99.90
13892;DHT22;7016;48.172;8.058;2023-12-20T15:03:04;6.60;99.90
13892;DHT22;7016;48.172;8.058;2023-12-20T15:05:31;6.60;99.90
13892;DHT22;7016;48.172;8.058;2023-12-20T15:07:56;6.60;99.90
13892;DHT22;7016;48.172;8.058;2023-12-20T15:10:22;6.70;99.90
13892;DHT22;7016;48.172;8.058;2023-12-20T15:12:48;6.50;99.90
13892;DHT22;7016;48.172;8.058;2023-12-20T15:15:14;6.40;99.90
13892;DHT22;7016;48.172;8.058;2023-12-20T15:17:39;6.50;99.90
13892;DHT22;7016;48.172;8.058;2023-12-20T15:20:05;6.60;99.90
13892;DHT22;7016;48.172;8.058;2023-12-20T15:22:31;6.60;99.90
13892;DHT22;7016;48.172;8.058;2023-12-20T15:24:59;6.50;99.90
13892;DHT22;7016;48.172;8.058;2023-12-20T15:27:26;6.60;99.90
13892;DHT22;7016;48.172;8.058;2023-12-20T15:29:52;6.60;99.90
13892;DHT22;7016;48.172;8.058;2023-12-20T15:32:18;6.50;99.90
13892;DHT22;7016;48.172;8.058;2023-12-20T15:34:46;6.60;99.90
13892;DHT22;7016;48.172;8.058;2023-12-20T15:37:12;6.70;99.90
13892;DHT22;7016;48.172;8.058;2023-12-20T15:39:38;6.70;99.90
13892;DHT22;7016;48.172;8.058;2023-12-20T15:42:04;6.60;99.90
13892;DHT22;7016;48.172;8.058;2023-12-20T15:44:29;6.70;99.90
13892;DHT22;7016;48.172;8.058;2023-12-20T15:46:55;6.60;99.90
13892;DHT22;7016;48.172;8.058;2023-12-20T15:49:21;6.60;99.90
13892;DHT22;7016;48.172;8.058;2023-12-20T15:51:46;6.50;99.90
13892;DHT22;7016;48.172;8.058;2023-12-20T15:54:12;6.30;99.90
13892;DHT22;7016;48.172;8.058;2023-12-20T15:56:38;6.40;99.90
13892;DHT22;7016;48.172;8.058;2023-12-20T15:59:06;6.30;99.90
13892;DHT22;7016;48.172;8.058;2023-12-20T16:01:32;6.30;99.90
13892;DHT22;7016;48.172;8.058;2023-12-20T16:03:58;6.30;99.90
13892;DHT22;7016;48.172;8.058;2023-12-20T16:06:23;6.30;99.90